createdAt,value
2024-01-16T00:00:12.933Z,77.98
2024-01-16T00:01:12.938Z,77.89
2024-01-16T00:02:12.957Z,78.27
2024-01-16T00:03:12.910Z,77.89
2024-01-16T00:04:12.974Z,77.61
2024-01-16T00:05:12.964Z,77.61
2024-01-16T00:06:12.953Z,77.70
2024-01-16T00:07:13.032Z,77.89
2024-01-16T00:08:12.941Z,77.70
2024-01-16T00:09:12.908Z,76.19
2024-01-16T00:10:12.927Z,76.00
2024-01-16T00:11:12.943Z,75.71
2024-01-16T00:12:12.911Z,74.77
2024-01-16T00:13:12.912Z,74.87
2024-01-16T00:14:12.934Z,74.77
2024-01-16T00:15:12.912Z,75.05
2024-01-16T00:16:12.918Z,75.30
2024-01-16T00:17:13.023Z,75.02
2024-01-16T00:18:13.177Z,74.64
2024-01-16T00:19:13.160Z,74.40
2024-01-16T00:20:13.005Z,74.17
2024-01-16T00:21:12.915Z,74.58
2024-01-16T00:22:12.916Z,74.21
2024-01-16T00:23:12.961Z,74.68
2024-01-16T00:24:12.936Z,74.58
2024-01-16T00:25:12.921Z,74.58
2024-01-16T00:26:12.946Z,74.21
2024-01-16T00:27:12.922Z,74.49
2024-01-16T00:28:12.921Z,73.93
2024-01-16T00:29:12.979Z,73.83
2024-01-16T00:30:12.922Z,73.55
2024-01-16T00:31:12.929Z,73.36
2024-01-16T00:32:12.973Z,73.74
2024-01-16T00:33:13.073Z,73.36
2024-01-16T00:34:12.964Z,72.79
2024-01-16T00:35:13.002Z,72.69
2024-01-16T00:36:12.926Z,72.79
2024-01-16T00:37:12.944Z,72.69
2024-01-16T00:38:12.949Z,73.55
2024-01-16T00:39:12.956Z,73.07
2024-01-16T00:40:12.955Z,73.26
2024-01-16T00:41:12.948Z,72.79
2024-01-16T00:42:12.971Z,72.38
2024-01-16T00:43:12.949Z,71.43
2024-01-16T00:44:12.946Z,71.34
2024-01-16T00:45:12.944Z,71.19
2024-01-16T00:46:12.940Z,70.05
2024-01-16T00:47:12.962Z,70.24
2024-01-16T00:48:13.049Z,70.24
2024-01-16T00:49:13.036Z,70.62
2024-01-16T00:50:12.965Z,70.24
2024-01-16T00:51:12.962Z,70.05
2024-01-16T00:52:12.950Z,70.05
2024-01-16T00:53:12.997Z,69.58
2024-01-16T00:54:12.966Z,69.20
2024-01-16T00:55:12.970Z,69.01
2024-01-16T00:56:12.988Z,68.92
2024-01-16T00:57:12.949Z,68.82
2024-01-16T00:58:12.958Z,68.73
2024-01-16T00:59:13.007Z,69.30
2024-01-16T01:00:12.963Z,69.30
2024-01-16T01:01:13.032Z,69.58
2024-01-16T01:02:13.004Z,70.15
2024-01-16T01:03:12.977Z,69.86
2024-01-16T01:04:12.988Z,70.15
2024-01-16T01:05:13.013Z,69.11
2024-01-16T01:06:13.028Z,69.01
2024-01-16T01:07:12.962Z,68.92
2024-01-16T01:08:13.020Z,68.44
2024-01-16T01:09:12.976Z,68.07
2024-01-16T01:10:12.996Z,68.44
2024-01-16T01:11:12.984Z,68.54
2024-01-16T01:12:12.995Z,68.54
2024-01-16T01:13:12.963Z,68.26
2024-01-16T01:14:13.113Z,67.69
2024-01-16T01:15:13.000Z,67.50
2024-01-16T01:16:12.966Z,67.97
2024-01-16T01:17:12.998Z,68.07
2024-01-16T01:18:13.085Z,67.13
2024-01-16T01:19:13.057Z,67.13
2024-01-16T01:20:12.994Z,67.88
2024-01-16T01:21:12.974Z,68.16
2024-01-16T01:22:12.975Z,68.63
2024-01-16T01:23:13.012Z,68.73
2024-01-16T01:24:12.977Z,69.30
2024-01-16T01:25:12.970Z,69.20
2024-01-16T01:26:13.017Z,69.20
2024-01-16T01:27:12.974Z,69.11
2024-01-16T01:28:12.998Z,69.30
2024-01-16T01:29:13.126Z,69.20
2024-01-16T01:30:13.043Z,69.01
2024-01-16T01:31:12.980Z,68.16
2024-01-16T01:32:13.003Z,68.16
2024-01-16T01:33:13.165Z,67.32
2024-01-16T01:34:13.050Z,67.13
2024-01-16T01:35:13.004Z,67.60
2024-01-16T01:36:12.981Z,67.32
2024-01-16T01:37:12.989Z,67.79
2024-01-16T01:38:13.012Z,68.35
2024-01-16T01:39:12.990Z,68.63
2024-01-16T01:40:12.982Z,67.97
2024-01-16T01:41:13.003Z,68.35
2024-01-16T01:42:13.005Z,67.69
2024-01-16T01:43:12.980Z,66.84
2024-01-16T01:44:13.026Z,67.38
2024-01-16T01:45:12.998Z,67.13
2024-01-16T01:46:13.000Z,67.19
2024-01-16T01:47:12.982Z,66.75
2024-01-16T01:48:13.074Z,66.37
2024-01-16T01:49:12.998Z,66.65
2024-01-16T01:50:12.997Z,67.13
2024-01-16T01:51:12.980Z,67.19
2024-01-16T01:52:12.984Z,67.09
2024-01-16T01:53:13.005Z,66.81
2024-01-16T01:54:13.013Z,67.00
2024-01-16T01:55:13.050Z,66.05
2024-01-16T01:56:13.000Z,65.86
2024-01-16T01:57:12.986Z,65.20
2024-01-16T01:58:12.987Z,65.52
2024-01-16T01:59:13.012Z,64.95
2024-01-16T02:00:13.027Z,65.42
2024-01-16T02:01:13.032Z,65.33
2024-01-16T02:02:12.996Z,65.20
2024-01-16T02:03:13.104Z,64.83
2024-01-16T02:04:12.994Z,64.45
2024-01-16T02:05:13.157Z,64.39
2024-01-16T02:06:13.263Z,64.54
2024-01-16T02:07:12.998Z,64.58
2024-01-16T02:08:13.034Z,64.39
2024-01-16T02:09:12.994Z,64.39
2024-01-16T02:10:13.006Z,63.70
2024-01-16T02:11:13.017Z,63.79
2024-01-16T02:12:13.011Z,63.60
2024-01-16T02:13:12.997Z,62.84
2024-01-16T02:14:13.030Z,62.66
2024-01-16T02:15:13.007Z,61.74
2024-01-16T02:16:13.026Z,60.52
2024-01-16T02:17:13.014Z,59.38
2024-01-16T02:18:13.099Z,58.72
2024-01-16T02:19:13.039Z,57.59
2024-01-16T02:20:13.022Z,56.46
2024-01-16T02:21:13.004Z,55.89
2024-01-16T02:22:13.015Z,54.00
2024-01-16T02:23:13.038Z,53.53
2024-01-16T02:24:13.009Z,54.94
2024-01-16T02:25:13.029Z,55.04
2024-01-16T02:26:13.052Z,55.51
2024-01-16T02:27:13.013Z,55.32
2024-01-16T02:28:13.016Z,55.23
2024-01-16T02:29:13.130Z,54.47
2024-01-16T02:30:13.154Z,53.81
2024-01-16T02:31:13.014Z,54.75
2024-01-16T02:32:13.048Z,55.70
2024-01-16T02:33:13.128Z,56.65
2024-01-16T02:34:13.141Z,56.65
2024-01-16T02:35:13.036Z,56.46
2024-01-16T02:36:13.025Z,56.46
2024-01-16T02:37:13.030Z,56.36
2024-01-16T02:38:13.064Z,56.65
2024-01-16T02:39:13.023Z,55.89
2024-01-16T02:40:13.023Z,55.80
2024-01-16T02:41:13.049Z,55.98
2024-01-16T02:42:13.028Z,57.03
2024-01-16T02:43:13.039Z,56.55
2024-01-16T02:44:13.079Z,57.31
2024-01-16T02:45:13.031Z,58.06
2024-01-16T02:46:13.041Z,58.15
2024-01-16T02:47:13.070Z,58.06
2024-01-16T02:48:13.161Z,58.63
2024-01-16T02:49:13.048Z,58.72
2024-01-16T02:50:13.081Z,59.45
2024-01-16T02:51:13.063Z,60.68
2024-01-16T02:52:13.053Z,61.61
2024-01-16T02:53:13.084Z,62.84
2024-01-16T02:54:13.096Z,62.66
2024-01-16T02:55:13.057Z,63.60
2024-01-16T02:56:13.096Z,64.36
2024-01-16T02:57:13.062Z,64.36
2024-01-16T02:58:13.067Z,65.11
2024-01-16T02:59:13.122Z,64.64
2024-01-16T03:00:13.087Z,64.92
2024-01-16T03:01:13.133Z,64.36
2024-01-16T03:02:13.095Z,64.54
2024-01-16T03:03:13.141Z,64.92
2024-01-16T03:04:13.127Z,65.77
2024-01-16T03:05:13.180Z,65.96
2024-01-16T03:06:13.213Z,66.05
2024-01-16T03:07:13.086Z,65.01
2024-01-16T03:08:13.112Z,63.41
2024-01-16T03:09:13.078Z,63.41
2024-01-16T03:10:13.084Z,63.32
2024-01-16T03:11:13.106Z,63.22
2024-01-16T03:12:13.106Z,63.22
2024-01-16T03:13:13.127Z,62.56
2024-01-16T03:14:13.127Z,61.80
2024-01-16T03:15:13.089Z,61.24
2024-01-16T03:16:13.102Z,61.24
2024-01-16T03:17:13.122Z,60.49
2024-01-16T03:18:13.531Z,60.30
2024-01-16T03:19:13.132Z,59.17
2024-01-16T03:20:13.198Z,59.35
2024-01-16T03:21:13.096Z,58.98
2024-01-16T03:22:13.100Z,59.54
2024-01-16T03:23:13.112Z,60.21
2024-01-16T03:24:13.214Z,59.92
2024-01-16T03:25:13.110Z,58.50
2024-01-16T03:26:13.141Z,57.75
2024-01-16T03:27:13.109Z,57.56
2024-01-16T03:28:13.121Z,57.94
2024-01-16T03:29:13.192Z,57.28
2024-01-16T03:30:13.353Z,57.18
2024-01-16T03:31:13.128Z,56.05
2024-01-16T03:32:13.215Z,53.78
2024-01-16T03:33:13.224Z,52.56
2024-01-16T03:34:13.162Z,51.43
2024-01-16T03:35:13.153Z,51.81
2024-01-16T03:36:13.138Z,51.62
2024-01-16T03:37:13.114Z,51.43
2024-01-16T03:38:13.171Z,51.24
2024-01-16T03:39:13.137Z,50.95
2024-01-16T03:40:13.128Z,50.76
2024-01-16T03:41:13.203Z,50.10
2024-01-16T03:42:13.125Z,48.88
2024-01-16T03:43:13.123Z,48.03
2024-01-16T03:44:13.166Z,47.84
2024-01-16T03:45:16.094Z,48.88
2024-01-16T03:46:13.144Z,50.67
2024-01-16T03:47:13.161Z,51.52
2024-01-16T03:48:13.386Z,51.33
2024-01-16T03:49:13.203Z,51.62
2024-01-16T03:50:13.196Z,53.41
2024-01-16T03:51:13.129Z,53.69
2024-01-16T03:52:13.150Z,52.47
2024-01-16T03:53:13.153Z,52.28
2024-01-16T03:54:13.133Z,53.59
2024-01-16T03:55:13.155Z,54.44
2024-01-16T03:56:13.191Z,55.67
2024-01-16T03:57:13.141Z,56.52
2024-01-16T03:58:13.708Z,56.05
2024-01-16T03:59:13.162Z,54.26
2024-01-16T04:00:13.152Z,54.16
2024-01-16T04:01:13.179Z,53.97
2024-01-16T04:02:13.187Z,55.86
2024-01-16T04:03:13.136Z,56.52
2024-01-16T04:04:13.216Z,56.43
2024-01-16T04:05:13.230Z,56.15
2024-01-16T04:06:13.217Z,55.20
2024-01-16T04:07:13.132Z,55.20
2024-01-16T04:08:13.178Z,55.30
2024-01-16T04:09:13.137Z,54.63
2024-01-16T04:10:13.142Z,53.13
2024-01-16T04:11:13.184Z,51.62
2024-01-16T04:12:13.139Z,51.24
2024-01-16T04:13:13.139Z,51.90
2024-01-16T04:14:13.186Z,52.09
2024-01-16T04:15:13.156Z,51.90
2024-01-16T04:16:13.148Z,51.43
2024-01-16T04:17:13.175Z,51.24
2024-01-16T04:18:13.426Z,51.14
2024-01-16T04:19:13.226Z,50.95
2024-01-16T04:20:13.198Z,50.95
2024-01-16T04:21:13.150Z,51.62
2024-01-16T04:22:13.160Z,52.37
2024-01-16T04:23:13.187Z,52.84
2024-01-16T04:24:13.181Z,53.13
2024-01-16T04:25:13.157Z,52.47
2024-01-16T04:26:13.197Z,51.43
2024-01-16T04:27:13.152Z,51.33
2024-01-16T04:28:13.154Z,51.14
2024-01-16T04:29:13.163Z,51.90
2024-01-16T04:30:13.269Z,53.22
2024-01-16T04:31:13.546Z,53.59
2024-01-16T04:32:13.224Z,53.22
2024-01-16T04:33:13.264Z,52.56
2024-01-16T04:34:13.345Z,52.56
2024-01-16T04:35:13.184Z,52.18
2024-01-16T04:36:13.161Z,52.47
2024-01-16T04:37:13.167Z,51.43
2024-01-16T04:38:13.242Z,50.76
2024-01-16T04:39:13.182Z,49.63
2024-01-16T04:40:13.229Z,49.35
2024-01-16T04:41:13.210Z,49.54
2024-01-16T04:42:13.165Z,49.07
2024-01-16T04:43:13.161Z,48.60
2024-01-16T04:44:13.196Z,48.79
2024-01-16T04:45:13.171Z,49.07
2024-01-16T04:46:13.168Z,49.35
2024-01-16T04:47:13.180Z,49.82
2024-01-16T04:48:13.274Z,50.29
2024-01-16T04:49:13.268Z,50.58
2024-01-16T04:50:13.258Z,50.95
2024-01-16T04:51:13.184Z,49.82
2024-01-16T04:52:13.183Z,49.07
2024-01-16T04:53:13.313Z,49.82
2024-01-16T04:54:13.191Z,50.86
2024-01-16T04:55:13.189Z,51.90
2024-01-16T04:56:13.268Z,51.62
2024-01-16T04:57:13.176Z,49.73
2024-01-16T04:58:13.179Z,48.69
2024-01-16T04:59:16.091Z,50.29
2024-01-16T05:00:13.196Z,51.62
2024-01-16T05:01:13.195Z,51.52
2024-01-16T05:02:13.236Z,50.58
2024-01-16T05:03:13.257Z,49.35
2024-01-16T05:04:13.215Z,48.32
2024-01-16T05:05:13.292Z,49.35
2024-01-16T05:06:13.231Z,49.35
2024-01-16T05:07:13.182Z,49.35
2024-01-16T05:08:13.210Z,50.10
2024-01-16T05:09:13.190Z,50.39
2024-01-16T05:10:13.188Z,50.10
2024-01-16T05:11:13.201Z,50.95
2024-01-16T05:12:13.207Z,50.95
2024-01-16T05:13:13.189Z,51.62
2024-01-16T05:14:13.208Z,52.56
2024-01-16T05:15:13.197Z,53.59
2024-01-16T05:16:13.197Z,53.59
2024-01-16T05:17:13.244Z,53.03
2024-01-16T05:18:13.302Z,53.41
2024-01-16T05:19:13.279Z,53.78
2024-01-16T05:20:13.246Z,54.63
2024-01-16T05:21:13.199Z,54.63
2024-01-16T05:22:13.197Z,53.03
2024-01-16T05:23:13.246Z,52.47
2024-01-16T05:24:13.200Z,53.22
2024-01-16T05:25:13.212Z,55.01
2024-01-16T05:26:13.293Z,55.30
2024-01-16T05:27:13.204Z,55.39
2024-01-16T05:28:13.218Z,55.30
2024-01-16T05:29:13.398Z,56.15
2024-01-16T05:30:13.319Z,57.46
2024-01-16T05:31:13.222Z,58.50
2024-01-16T05:32:13.300Z,58.60
2024-01-16T05:33:13.455Z,56.52
2024-01-16T05:34:13.312Z,55.39
2024-01-16T05:35:13.246Z,54.16
2024-01-16T05:36:13.214Z,53.22
2024-01-16T05:37:13.204Z,52.66
2024-01-16T05:38:13.267Z,52.53
2024-01-16T05:39:13.211Z,52.18
2024-01-16T05:40:13.204Z,51.90
2024-01-16T05:41:13.246Z,51.81
2024-01-16T05:42:13.207Z,50.76
2024-01-16T05:43:13.206Z,50.10
2024-01-16T05:44:13.280Z,50.10
2024-01-16T05:45:13.207Z,50.39
2024-01-16T05:46:13.206Z,50.10
2024-01-16T05:47:13.223Z,49.91
2024-01-16T05:48:13.305Z,49.63
2024-01-16T05:49:13.259Z,50.39
2024-01-16T05:50:13.427Z,50.48
2024-01-16T05:51:13.266Z,51.05
2024-01-16T05:52:13.210Z,50.58
2024-01-16T05:53:13.236Z,49.82
2024-01-16T05:54:13.225Z,48.97
2024-01-16T05:55:13.212Z,48.50
2024-01-16T05:56:13.256Z,48.03
2024-01-16T05:57:13.213Z,47.94
2024-01-16T05:58:15.193Z,46.52
2024-01-16T05:59:13.286Z,46.04
2024-01-16T06:00:13.239Z,45.76
2024-01-16T06:01:13.230Z,46.42
2024-01-16T06:02:13.276Z,46.33
2024-01-16T06:03:13.245Z,45.76
2024-01-16T06:04:14.826Z,45.10
2024-01-16T06:05:13.258Z,44.26
2024-01-16T06:06:13.277Z,44.35
2024-01-16T06:07:13.221Z,44.35
2024-01-16T06:08:13.270Z,44.92
2024-01-16T06:09:13.221Z,45.10
2024-01-16T06:10:13.217Z,44.92
2024-01-16T06:11:14.816Z,45.67
2024-01-16T06:12:13.221Z,46.61
2024-01-16T06:13:13.221Z,47.75
2024-01-16T06:14:13.412Z,47.65
2024-01-16T06:15:13.233Z,47.56
2024-01-16T06:16:13.243Z,46.14
2024-01-16T06:17:13.253Z,45.57
2024-01-16T06:18:13.308Z,45.01
2024-01-16T06:19:13.252Z,45.01
2024-01-16T06:20:13.336Z,45.76
2024-01-16T06:21:13.293Z,45.95
2024-01-16T06:22:13.229Z,46.33
2024-01-16T06:23:13.273Z,46.99
2024-01-16T06:24:13.232Z,47.65
2024-01-16T06:25:13.237Z,46.99
2024-01-16T06:26:13.233Z,46.99
2024-01-16T06:27:13.231Z,45.67
2024-01-16T06:28:13.272Z,44.54
2024-01-16T06:29:21.502Z,43.69
2024-01-16T06:30:13.320Z,44.45
2024-01-16T06:31:13.267Z,45.10
2024-01-16T06:32:13.380Z,45.67
2024-01-16T06:33:13.385Z,46.42
2024-01-16T06:34:13.301Z,45.48
2024-01-16T06:35:13.314Z,44.35
2024-01-16T06:36:13.246Z,43.88
2024-01-16T06:37:13.245Z,43.88
2024-01-16T06:38:13.247Z,44.82
2024-01-16T06:39:13.244Z,45.57
2024-01-16T06:40:13.239Z,45.57
2024-01-16T06:41:13.264Z,43.97
2024-01-16T06:42:13.248Z,43.97
2024-01-16T06:43:13.248Z,45.39
2024-01-16T06:44:13.268Z,46.42
2024-01-16T06:45:13.247Z,47.84
2024-01-16T06:46:13.248Z,47.37
2024-01-16T06:47:13.307Z,48.13
2024-01-16T06:48:13.394Z,47.56
2024-01-16T06:49:13.322Z,48.32
2024-01-16T06:50:13.304Z,48.50
2024-01-16T06:51:13.251Z,47.37
2024-01-16T06:52:13.252Z,46.71
2024-01-16T06:53:15.363Z,46.90
2024-01-16T06:54:13.265Z,46.99
2024-01-16T06:55:13.262Z,47.18
2024-01-16T06:56:13.281Z,48.32
2024-01-16T06:57:13.257Z,48.03
2024-01-16T06:58:13.261Z,47.65
2024-01-16T06:59:13.289Z,47.94
2024-01-16T07:00:13.261Z,48.03
2024-01-16T07:01:13.306Z,48.03
2024-01-16T07:02:13.308Z,48.50
2024-01-16T07:03:13.283Z,46.90
2024-01-16T07:04:13.304Z,46.04
2024-01-16T07:05:13.411Z,45.76
2024-01-16T07:06:13.371Z,46.23
2024-01-16T07:07:13.280Z,46.61
2024-01-16T07:08:13.272Z,47.56
2024-01-16T07:09:13.263Z,46.90
2024-01-16T07:10:13.260Z,46.90
2024-01-16T07:11:13.278Z,46.99
2024-01-16T07:12:13.279Z,47.56
2024-01-16T07:13:13.259Z,47.75
2024-01-16T07:14:13.318Z,48.03
2024-01-16T07:15:13.260Z,47.37
2024-01-16T07:16:13.261Z,47.84
2024-01-16T07:17:13.277Z,47.09
2024-01-16T07:18:13.385Z,46.80
2024-01-16T07:19:13.484Z,46.42
2024-01-16T07:20:13.358Z,46.90
2024-01-16T07:21:13.270Z,47.75
2024-01-16T07:22:13.267Z,47.56
2024-01-16T07:23:13.298Z,47.37
2024-01-16T07:24:13.270Z,46.52
2024-01-16T07:25:13.267Z,45.10
2024-01-16T07:26:13.471Z,44.35
2024-01-16T07:27:13.270Z,43.59
2024-01-16T07:28:13.286Z,43.97
2024-01-16T07:29:13.323Z,43.88
2024-01-16T07:30:13.291Z,44.26
2024-01-16T07:31:13.310Z,44.37
2024-01-16T07:32:13.358Z,43.90
2024-01-16T07:33:13.376Z,42.96
2024-01-16T07:34:13.352Z,42.30
2024-01-16T07:35:13.373Z,40.97
2024-01-16T07:36:13.305Z,40.97
2024-01-16T07:37:13.279Z,40.59
2024-01-16T07:38:13.302Z,40.69
2024-01-16T07:39:13.283Z,41.25
2024-01-16T07:40:13.286Z,39.65
2024-01-16T07:41:13.311Z,39.09
2024-01-16T07:42:13.285Z,39.28
2024-01-16T07:43:13.296Z,40.12
2024-01-16T07:44:13.296Z,40.12
2024-01-16T07:45:13.289Z,40.50
2024-01-16T07:46:13.282Z,40.69
2024-01-16T07:47:13.310Z,41.92
2024-01-16T07:48:13.437Z,41.82
2024-01-16T07:49:13.375Z,42.01
2024-01-16T07:50:13.345Z,41.44
2024-01-16T07:51:13.295Z,41.35
2024-01-16T07:52:13.323Z,41.44
2024-01-16T07:53:13.309Z,41.82
2024-01-16T07:54:13.299Z,41.63
2024-01-16T07:55:13.297Z,40.78
2024-01-16T07:56:13.425Z,40.50
2024-01-16T07:57:13.299Z,40.59
2024-01-16T07:58:13.300Z,40.88
2024-01-16T07:59:13.423Z,40.88
2024-01-16T08:00:13.309Z,40.31
2024-01-16T08:01:13.358Z,39.58
2024-01-16T08:02:13.358Z,39.67
2024-01-16T08:03:13.635Z,39.95
2024-01-16T08:04:13.413Z,40.24
2024-01-16T08:05:13.417Z,40.80
2024-01-16T08:06:13.453Z,41.85
2024-01-16T08:07:13.329Z,42.50
2024-01-16T08:08:13.457Z,42.41
2024-01-16T08:09:13.500Z,42.30
2024-01-16T08:10:14.795Z,42.22
2024-01-16T08:11:13.383Z,41.66
2024-01-16T08:12:13.354Z,40.14
2024-01-16T08:13:13.334Z,39.01
2024-01-16T08:14:13.386Z,38.16
2024-01-16T08:15:13.353Z,37.97
2024-01-16T08:16:13.362Z,37.97
2024-01-16T08:17:13.378Z,37.78
2024-01-16T08:18:13.616Z,37.78
2024-01-16T08:19:13.431Z,37.69
2024-01-16T08:20:13.404Z,37.69
2024-01-16T08:21:13.390Z,37.59
2024-01-16T08:22:13.362Z,37.50
2024-01-16T08:23:13.390Z,37.59
2024-01-16T08:24:13.392Z,37.50
2024-01-16T08:25:13.396Z,37.71
2024-01-16T08:26:13.416Z,37.61
2024-01-16T08:27:13.384Z,37.71
2024-01-16T08:28:13.384Z,37.71
2024-01-16T08:29:13.430Z,37.71
2024-01-16T08:30:13.634Z,37.71
2024-01-16T08:31:13.396Z,37.61
2024-01-16T08:32:13.430Z,37.61
2024-01-16T08:33:13.513Z,37.14
2024-01-16T08:34:13.477Z,36.29
2024-01-16T08:35:13.565Z,35.72
2024-01-16T08:36:13.465Z,34.68
2024-01-16T08:37:13.403Z,32.89
2024-01-16T08:38:13.429Z,32.23
2024-01-16T08:39:13.409Z,32.79
2024-01-16T08:40:13.424Z,33.54
2024-01-16T08:41:13.452Z,34.78
2024-01-16T08:42:13.414Z,35.93
2024-01-16T08:43:13.425Z,36.21
2024-01-16T08:44:13.459Z,36.02
2024-01-16T08:45:13.427Z,35.46
2024-01-16T08:46:13.458Z,35.17
2024-01-16T08:47:13.457Z,34.99
2024-01-16T08:48:13.594Z,35.27
2024-01-16T08:49:13.954Z,35.28
2024-01-16T08:50:13.486Z,35.00
2024-01-16T08:51:13.441Z,34.91
2024-01-16T08:52:13.440Z,34.34
2024-01-16T08:53:13.473Z,33.58
2024-01-16T08:54:13.444Z,31.41
2024-01-16T08:55:13.457Z,30.65
2024-01-16T08:56:13.777Z,29.80
2024-01-16T08:57:15.657Z,29.61
2024-01-16T08:58:13.463Z,29.61
2024-01-16T08:59:13.515Z,30.36
2024-01-16T09:00:13.486Z,31.22
2024-01-16T09:01:13.539Z,31.50
2024-01-16T09:02:13.605Z,30.65
2024-01-16T09:03:13.488Z,30.84
2024-01-16T09:04:13.620Z,31.80
2024-01-16T09:05:13.629Z,32.28
2024-01-16T09:06:13.609Z,32.09
2024-01-16T09:07:13.581Z,32.28
2024-01-16T09:08:14.127Z,32.28
2024-01-16T09:09:13.514Z,32.28
2024-01-16T09:10:13.505Z,31.90
2024-01-16T09:11:13.558Z,29.91
2024-01-16T09:12:13.535Z,29.34
2024-01-16T09:13:13.536Z,29.24
2024-01-16T09:14:13.542Z,28.67
2024-01-16T09:15:13.568Z,27.83
2024-01-16T09:16:13.537Z,29.24
2024-01-16T09:17:13.570Z,30.38
2024-01-16T09:18:13.666Z,31.33
2024-01-16T09:19:13.664Z,31.90
2024-01-16T09:20:13.596Z,30.47
2024-01-16T09:21:13.555Z,29.53
2024-01-16T09:22:13.558Z,28.39
2024-01-16T09:23:13.611Z,27.54
2024-01-16T09:24:13.562Z,27.54
2024-01-16T09:25:13.571Z,29.43
2024-01-16T09:26:13.598Z,30.10
2024-01-16T09:27:13.581Z,31.53
2024-01-16T09:28:13.607Z,31.04
2024-01-16T09:29:13.601Z,31.14
2024-01-16T09:30:13.652Z,31.53
2024-01-16T09:31:13.662Z,32.76
2024-01-16T09:32:13.620Z,32.10
2024-01-16T09:33:13.644Z,31.63
2024-01-16T09:34:13.693Z,31.34
2024-01-16T09:35:13.690Z,31.72
2024-01-16T09:36:13.628Z,32.01
2024-01-16T09:37:13.635Z,32.12
2024-01-16T09:38:13.667Z,34.48
2024-01-16T09:39:14.681Z,34.48
2024-01-16T09:40:13.652Z,32.97
2024-01-16T09:41:13.674Z,33.16
2024-01-16T09:42:13.657Z,33.82
2024-01-16T09:43:13.686Z,34.11
2024-01-16T09:44:13.751Z,35.24
2024-01-16T09:45:13.662Z,32.31
2024-01-16T09:46:13.685Z,31.45
2024-01-16T09:47:13.725Z,30.98
2024-01-16T09:48:13.827Z,30.13
2024-01-16T09:49:13.758Z,29.56
2024-01-16T09:50:13.723Z,30.51
2024-01-16T09:51:13.699Z,32.21
2024-01-16T09:52:13.703Z,34.03
2024-01-16T09:53:13.739Z,35.07
2024-01-16T09:54:13.727Z,34.88
2024-01-16T09:55:13.743Z,32.70
2024-01-16T09:56:13.766Z,31.85
2024-01-16T09:57:13.735Z,32.42
2024-01-16T09:58:13.737Z,32.91
2024-01-16T09:59:13.794Z,34.14
2024-01-16T10:00:13.762Z,35.01
2024-01-16T10:01:13.769Z,35.96
2024-01-16T10:02:13.791Z,34.71
2024-01-16T10:03:13.766Z,32.83
2024-01-16T10:04:13.838Z,33.11
2024-01-16T10:05:13.892Z,33.69
2024-01-16T10:06:13.933Z,35.01
2024-01-16T10:07:13.789Z,34.94
2024-01-16T10:08:13.873Z,34.67
2024-01-16T10:09:13.801Z,35.05
2024-01-16T10:10:13.889Z,34.97
2024-01-16T10:11:13.836Z,34.95
2024-01-16T10:12:13.837Z,35.05
2024-01-16T10:13:13.837Z,34.86
2024-01-16T10:14:13.858Z,34.19
2024-01-16T10:15:13.857Z,34.86
2024-01-16T10:16:13.883Z,36.28
2024-01-16T10:17:13.888Z,40.46
2024-01-16T10:18:13.980Z,36.68
2024-01-16T10:19:13.980Z,37.25
2024-01-16T10:20:13.986Z,33.73
2024-01-16T10:21:13.895Z,32.12
2024-01-16T10:22:14.012Z,30.58
2024-01-16T10:23:13.939Z,36.11
2024-01-16T10:24:13.944Z,36.02
2024-01-16T10:25:13.936Z,34.97
2024-01-16T10:26:13.963Z,28.59
2024-01-16T10:27:13.946Z,24.79
2024-01-16T10:28:13.990Z,22.21
2024-01-16T10:29:13.998Z,20.79
2024-01-16T10:30:14.495Z,20.50
2024-01-16T10:31:14.104Z,21.26
2024-01-16T10:32:14.290Z,20.41
2024-01-16T10:33:14.221Z,20.42
2024-01-16T10:34:14.125Z,21.18
2024-01-16T10:35:14.446Z,21.84
2024-01-16T10:36:14.043Z,23.55
2024-01-16T10:37:14.037Z,25.09
2024-01-16T10:38:14.080Z,25.46
2024-01-16T10:39:14.049Z,25.65
2024-01-16T10:40:14.075Z,24.42
2024-01-16T10:41:14.182Z,22.80
2024-01-16T10:42:14.073Z,20.32
2024-01-16T10:43:14.086Z,19.95
2024-01-16T10:44:14.119Z,22.31
2024-01-16T10:45:14.100Z,23.45
2024-01-16T10:46:14.200Z,21.64
2024-01-16T10:47:14.186Z,20.41
2024-01-16T10:48:14.220Z,20.12
2024-01-16T10:49:14.165Z,20.97
2024-01-16T10:50:14.165Z,20.59
2024-01-16T10:51:14.149Z,19.35
2024-01-16T10:52:14.180Z,19.92
2024-01-16T10:53:14.227Z,20.78
2024-01-16T10:54:14.195Z,20.87
2024-01-16T10:55:14.181Z,21.45
2024-01-16T10:56:14.251Z,20.69
2024-01-16T10:57:14.208Z,19.84
2024-01-16T10:58:14.321Z,20.12
2024-01-16T10:59:14.243Z,21.26
2024-01-16T11:00:14.233Z,21.74
2024-01-16T11:01:14.332Z,22.78
2024-01-16T11:02:14.273Z,22.88
2024-01-16T11:03:14.257Z,21.55
2024-01-16T11:04:16.200Z,20.40
2024-01-16T11:05:14.373Z,18.98
2024-01-16T11:06:14.378Z,17.93
2024-01-16T11:07:14.298Z,17.83
2024-01-16T11:08:14.301Z,18.50
2024-01-16T11:09:14.302Z,20.21
2024-01-16T11:10:14.310Z,21.83
2024-01-16T11:11:14.341Z,22.70
2024-01-16T11:12:14.326Z,23.46
2024-01-16T11:13:14.345Z,22.32
2024-01-16T11:14:14.368Z,21.47
2024-01-16T11:15:14.372Z,19.93
2024-01-16T11:16:14.372Z,19.65
2024-01-16T11:17:14.410Z,19.93
2024-01-16T11:18:14.481Z,20.60
2024-01-16T11:19:25.746Z,20.60
2024-01-16T11:20:29.881Z,20.79
2024-01-16T11:21:17.148Z,20.79
2024-01-16T11:22:14.557Z,21.64
2024-01-16T11:23:14.446Z,23.64
2024-01-16T11:24:14.429Z,25.74
2024-01-16T11:25:14.437Z,26.50
2024-01-16T11:26:14.491Z,27.84
2024-01-16T11:27:14.505Z,27.75
2024-01-16T11:28:14.529Z,26.13
2024-01-16T11:29:14.500Z,26.78
2024-01-16T11:30:14.560Z,27.36
2024-01-16T11:31:14.529Z,28.11
2024-01-16T11:32:23.635Z,30.28
2024-01-16T11:33:14.632Z,30.76
2024-01-16T11:34:14.734Z,32.37
2024-01-16T11:35:14.639Z,33.51
2024-01-16T11:36:14.560Z,30.94
2024-01-16T11:37:14.542Z,26.96
2024-01-16T11:38:14.573Z,25.06
2024-01-16T11:39:14.568Z,25.63
2024-01-16T11:40:14.567Z,26.48
2024-01-16T11:41:14.619Z,27.25
2024-01-16T11:42:14.615Z,27.91
2024-01-16T11:43:14.596Z,26.29
2024-01-16T11:44:14.631Z,24.40
2024-01-16T11:45:14.626Z,22.49
2024-01-16T11:46:14.623Z,23.44
2024-01-16T11:47:14.683Z,24.48
2024-01-16T11:48:14.966Z,24.67
2024-01-16T11:49:14.712Z,24.30
2024-01-16T11:50:14.708Z,24.77
2024-01-16T11:51:14.669Z,24.48
2024-01-16T11:52:14.701Z,24.40
2024-01-16T11:53:14.701Z,23.45
2024-01-16T11:54:14.693Z,22.40
2024-01-16T11:55:14.700Z,21.74
2024-01-16T11:56:14.714Z,19.74
2024-01-16T11:57:14.760Z,18.79
2024-01-16T11:58:14.728Z,19.37
2024-01-16T11:59:14.747Z,21.66
2024-01-16T12:00:14.754Z,23.55
2024-01-16T12:01:14.801Z,25.55
2024-01-16T12:02:14.788Z,26.61
2024-01-16T12:03:21.928Z,27.48
2024-01-16T12:04:14.780Z,25.02
2024-01-16T12:05:14.850Z,24.84
2024-01-16T12:06:14.936Z,27.31
2024-01-16T12:07:14.873Z,29.98
2024-01-16T12:08:14.911Z,28.64
2024-01-16T12:09:14.826Z,26.76
2024-01-16T12:10:14.843Z,26.17
2024-01-16T12:11:14.866Z,28.83
2024-01-16T12:12:14.873Z,31.98
2024-01-16T12:13:14.861Z,35.50
2024-01-16T12:14:14.898Z,35.31
2024-01-16T12:15:14.887Z,34.53
2024-01-16T12:16:14.897Z,32.55
2024-01-16T12:17:15.040Z,31.60
2024-01-16T12:18:23.414Z,31.99
2024-01-16T12:19:15.209Z,30.09
2024-01-16T12:20:15.025Z,27.51
2024-01-16T12:21:15.157Z,25.23
2024-01-16T12:22:15.006Z,25.62
2024-01-16T12:23:15.023Z,24.28
2024-01-16T12:24:18.475Z,22.66
2024-01-16T12:25:14.992Z,22.47
2024-01-16T12:26:15.014Z,28.47
2024-01-16T12:27:15.043Z,30.37
2024-01-16T12:28:19.147Z,27.80
2024-01-16T12:29:15.057Z,25.04
2024-01-16T12:30:15.076Z,23.43
2024-01-16T12:31:15.077Z,22.39
2024-01-16T12:32:15.125Z,22.78
2024-01-16T12:33:15.186Z,23.92
2024-01-16T12:34:15.188Z,23.55
2024-01-16T12:35:15.172Z,21.55
2024-01-16T12:36:15.151Z,21.47
2024-01-16T12:37:15.148Z,22.89
2024-01-16T12:38:15.156Z,23.55
2024-01-16T12:39:15.173Z,22.68
2024-01-16T12:40:15.211Z,21.83
2024-01-16T12:41:15.193Z,20.49
2024-01-16T12:42:15.228Z,20.49
2024-01-16T12:43:15.211Z,20.87
2024-01-16T12:44:17.171Z,21.72
2024-01-16T12:45:15.242Z,19.13
2024-01-16T12:46:15.247Z,20.56
2024-01-16T12:47:15.293Z,21.22
2024-01-16T12:48:15.371Z,21.41
2024-01-16T12:49:15.466Z,20.36
2024-01-16T12:50:15.399Z,20.36
2024-01-16T12:51:15.359Z,22.45
2024-01-16T12:52:15.325Z,22.74